This is the latest recevied weather packets stored in our database for station/object AD8IZ-13. If no packets are shown the sender has not sent any weather packets the latest 10 day(s).
| Time | Temp. | Humidity | Pressure | Rain* | Wind** | Luminosity | Snow |
|---|---|---|---|---|---|---|---|
| 1777503319 | 14.44° C | 89% | 1010.4 hPa | 1.52 mm | - | 108 W/m² | - |
| 1777502720 | 15° C | 86% | 1010.2 hPa | 1.52 mm | - | 125 W/m² | - |
| 1777502122 | 15.56° C | 81% | 1010 hPa | 0.25 mm | - | 13 W/m² | - |
| 1777501519 | 16.11° C | 80% | 1009.8 hPa | 0 mm | - | 90 W/m² | - |
| 1777500920 | 16.11° C | 78% | 1009.8 hPa | 0 mm | - | 151 W/m² | - |
| 1777500319 | 16.67° C | 78% | 1009.6 hPa | 0 mm | - | 315 W/m² | - |
| 1777499721 | 16.67° C | 79% | 1009.5 hPa | 0 mm | - | 327 W/m² | - |
| 1777499128 | 16.11° C | 80% | 1009.5 hPa | 0 mm | - | 359 W/m² | - |
| 1777498517 | 15.56° C | 82% | 1009.6 hPa | 0 mm | - | 394 W/m² | - |
| 1777497917 | 15.56° C | 85% | 1009.7 hPa | 0 mm | - | 435 W/m² | - |
| 1777497317 | 15° C | 88% | 1009.8 hPa | 0 mm | - | 407 W/m² | - |
| 1777496721 | 15° C | 88% | 1009.7 hPa | 0 mm | - | 20 W/m² | - |
| 1777496121 | 15° C | 89% | 1009.6 hPa | 0 mm | - | 89 W/m² | - |
| 1777495519 | 15° C | 89% | 1009.6 hPa | 0 mm | - | 116 W/m² | - |
| 1777494918 | 15° C | 90% | 1009.6 hPa | 0 mm | - | 206 W/m² | - |
| 1777494318 | 15° C | 91% | 1009.6 hPa | 0 mm | - | 283 W/m² | - |
| 1777493720 | 14.44° C | 92% | 1009.6 hPa | 0 mm | - | 285 W/m² | - |
| 1777493119 | 14.44° C | 94% | 1009.6 hPa | 0 mm | - | 283 W/m² | - |
| 1777492518 | 13.89° C | 95% | 1009.5 hPa | 0 mm | - | 243 W/m² | - |
| 1777491922 | 13.89° C | 95% | 1009.7 hPa | 0 mm | - | 198 W/m² | - |
| 1777491328 | 13.33° C | 96% | 1009.7 hPa | 0 mm | - | 194 W/m² | - |
| 1777490723 | 13.89° C | 97% | 1009.6 hPa | 0.25 mm | - | 316 W/m² | - |
| 1777490130 | 13.89° C | 97% | 1009.6 hPa | 0.51 mm | - | 223 W/m² | - |
| 1777489522 | 13.33° C | 97% | 1009.6 hPa | 0.76 mm | - | 300 W/m² | - |
| 1777488930 | 13.33° C | 97% | 1009.6 hPa | 0.76 mm | - | 119 W/m² | - |
* Rain latest hour (hover to see other rain measurements)
** Current wind speed in m/s (hover to see current wind gust speed)